sensor_id;sensor_type;location;lat;lon;timestamp;P1;durP1;ratioP1;P2;durP2;ratioP2
32319;SDS011;19080;51.750;5.888;2023-06-19T00:00:28;8.50;;;7.38;;
32319;SDS011;19080;51.750;5.888;2023-06-19T00:02:57;9.18;;;6.60;;
32319;SDS011;19080;51.750;5.888;2023-06-19T00:05:24;7.22;;;6.53;;
32319;SDS011;19080;51.750;5.888;2023-06-19T00:07:51;11.57;;;7.00;;
32319;SDS011;19080;51.750;5.888;2023-06-19T00:10:18;9.45;;;7.05;;
32319;SDS011;19080;51.750;5.888;2023-06-19T00:12:45;10.02;;;7.25;;
32319;SDS011;19080;51.750;5.888;2023-06-19T00:15:12;10.50;;;7.25;;
32319;SDS011;19080;51.750;5.888;2023-06-19T00:17:39;9.45;;;7.13;;
32319;SDS011;19080;51.750;5.888;2023-06-19T00:20:06;8.30;;;6.40;;
32319;SDS011;19080;51.750;5.888;2023-06-19T00:22:33;7.50;;;6.70;;
32319;SDS011;19080;51.750;5.888;2023-06-19T00:25:00;5.80;;;5.30;;
32319;SDS011;19080;51.750;5.888;2023-06-19T00:27:27;8.32;;;6.15;;
32319;SDS011;19080;51.750;5.888;2023-06-19T00:29:54;9.10;;;6.25;;
32319;SDS011;19080;51.750;5.888;2023-06-19T00:32:21;6.57;;;5.97;;
32319;SDS011;19080;51.750;5.888;2023-06-19T00:34:48;6.30;;;5.70;;
32319;SDS011;19080;51.750;5.888;2023-06-19T00:37:14;6.35;;;5.65;;
32319;SDS011;19080;51.750;5.888;2023-06-19T00:39:41;6.40;;;5.80;;
32319;SDS011;19080;51.750;5.888;2023-06-19T00:42:10;6.00;;;5.30;;
32319;SDS011;19080;51.750;5.888;2023-06-19T00:44:37;6.32;;;5.72;;
32319;SDS011;19080;51.750;5.888;2023-06-19T00:47:04;8.45;;;5.28;;
32319;SDS011;19080;51.750;5.888;2023-06-19T00:49:32;7.47;;;5.50;;
32319;SDS011;19080;51.750;5.888;2023-06-19T00:51:59;5.80;;;5.18;;
32319;SDS011;19080;51.750;5.888;2023-06-19T00:54:25;7.20;;;5.80;;
32319;SDS011;19080;51.750;5.888;2023-06-19T00:56:52;6.10;;;5.50;;
32319;SDS011;19080;51.750;5.888;2023-06-19T00:59:20;5.72;;;5.22;;
32319;SDS011;19080;51.750;5.888;2023-06-19T01:01:48;8.52;;;5.63;;
32319;SDS011;19080;51.750;5.888;2023-06-19T01:04:14;10.35;;;6.05;;
32319;SDS011;19080;51.750;5.888;2023-06-19T01:06:57;5.70;;;5.20;;
32319;SDS011;19080;51.750;5.888;2023-06-19T01:09:31;9.07;;;6.55;;
32319;SDS011;19080;51.750;5.888;2023-06-19T01:12:05;7.32;;;5.25;;
32319;SDS011;19080;51.750;5.888;2023-06-19T01:17:40;6.13;;;5.63;;
32319;SDS011;19080;51.750;5.888;2023-06-19T01:20:07;7.55;;;5.88;;
32319;SDS011;19080;51.750;5.888;2023-06-19T01:22:37;6.25;;;5.68;;
32319;SDS011;19080;51.750;5.888;2023-06-19T01:25:04;7.28;;;6.07;;
32319;SDS011;19080;51.750;5.888;2023-06-19T01:27:34;5.53;;;5.03;;
32319;SDS011;19080;51.750;5.888;2023-06-19T01:30:02;6.82;;;5.50;;
32319;SDS011;19080;51.750;5.888;2023-06-19T01:35:11;6.82;;;5.57;;
32319;SDS011;19080;51.750;5.888;2023-06-19T01:37:40;7.80;;;5.32;;
32319;SDS011;19080;51.750;5.888;2023-06-19T01:40:08;9.60;;;5.75;;
32319;SDS011;19080;51.750;5.888;2023-06-19T01:42:39;9.48;;;5.93;;
32319;SDS011;19080;51.750;5.888;2023-06-19T01:45:07;6.72;;;5.57;;
32319;SDS011;19080;51.750;5.888;2023-06-19T01:47:35;6.15;;;5.30;;
32319;SDS011;19080;51.750;5.888;2023-06-19T01:50:02;5.88;;;5.28;;
32319;SDS011;19080;51.750;5.888;2023-06-19T01:52:29;6.47;;;5.30;;
32319;SDS011;19080;51.750;5.888;2023-06-19T01:54:55;5.88;;;5.03;;
32319;SDS011;19080;51.750;5.888;2023-06-19T01:57:23;5.65;;;4.93;;
32319;SDS011;19080;51.750;5.888;2023-06-19T01:59:50;6.25;;;5.18;;
32319;SDS011;19080;51.750;5.888;2023-06-19T02:02:17;6.80;;;4.70;;
32319;SDS011;19080;51.750;5.888;2023-06-19T02:04:43;7.38;;;5.50;;
32319;SDS011;19080;51.750;5.888;2023-06-19T02:07:10;8.00;;;4.75;;
32319;SDS011;19080;51.750;5.888;2023-06-19T02:09:37;5.38;;;4.38;;
32319;SDS011;19080;51.750;5.888;2023-06-19T02:12:04;10.23;;;4.97;;
32319;SDS011;19080;51.750;5.888;2023-06-19T02:14:31;5.75;;;4.68;;
32319;SDS011;19080;51.750;5.888;2023-06-19T02:16:58;8.40;;;4.05;;
32319;SDS011;19080;51.750;5.888;2023-06-19T02:19:25;5.50;;;4.80;;
32319;SDS011;19080;51.750;5.888;2023-06-19T02:21:55;8.75;;;4.30;;
32319;SDS011;19080;51.750;5.888;2023-06-19T02:24:24;10.50;;;4.32;;
32319;SDS011;19080;51.750;5.888;2023-06-19T02:26:51;6.55;;;4.32;;
32319;SDS011;19080;51.750;5.888;2023-06-19T02:29:18;5.90;;;4.70;;
32319;SDS011;19080;51.750;5.888;2023-06-19T02:31:44;6.68;;;4.32;;
32319;SDS011;19080;51.750;5.888;2023-06-19T02:34:11;5.32;;;3.95;;
32319;SDS011;19080;51.750;5.888;2023-06-19T02:36:38;4.97;;;4.13;;
32319;SDS011;19080;51.750;5.888;2023-06-19T02:39:05;5.22;;;4.25;;
32319;SDS011;19080;51.750;5.888;2023-06-19T02:41:34;4.32;;;3.92;;
32319;SDS011;19080;51.750;5.888;2023-06-19T02:44:02;5.75;;;4.65;;
32319;SDS011;19080;51.750;5.888;2023-06-19T02:46:29;5.53;;;4.72;;
32319;SDS011;19080;51.750;5.888;2023-06-19T02:48:56;5.85;;;4.45;;
32319;SDS011;19080;51.750;5.888;2023-06-19T02:51:22;4.85;;;4.35;;
32319;SDS011;19080;51.750;5.888;2023-06-19T02:53:49;7.25;;;4.60;;
32319;SDS011;19080;51.750;5.888;2023-06-19T02:56:16;4.57;;;3.92;;
32319;SDS011;19080;51.750;5.888;2023-06-19T02:58:44;5.25;;;3.42;;
32319;SDS011;19080;51.750;5.888;2023-06-19T03:01:11;4.75;;;3.97;;
32319;SDS011;19080;51.750;5.888;2023-06-19T03:03:38;4.22;;;3.53;;
32319;SDS011;19080;51.750;5.888;2023-06-19T03:06:05;3.90;;;3.47;;
32319;SDS011;19080;51.750;5.888;2023-06-19T03:08:36;3.72;;;3.13;;
32319;SDS011;19080;51.750;5.888;2023-06-19T03:11:04;5.40;;;3.65;;
32319;SDS011;19080;51.750;5.888;2023-06-19T03:13:43;3.22;;;2.92;;
32319;SDS011;19080;51.750;5.888;2023-06-19T03:18:42;4.15;;;2.80;;
32319;SDS011;19080;51.750;5.888;2023-06-19T03:21:14;3.17;;;2.88;;
32319;SDS011;19080;51.750;5.888;2023-06-19T03:23:43;3.47;;;3.05;;
32319;SDS011;19080;51.750;5.888;2023-06-19T03:26:10;3.67;;;2.63;;
32319;SDS011;19080;51.750;5.888;2023-06-19T03:28:38;5.22;;;3.38;;
32319;SDS011;19080;51.750;5.888;2023-06-19T03:31:07;7.40;;;3.28;;
32319;SDS011;19080;51.750;5.888;2023-06-19T03:33:34;3.20;;;2.90;;
32319;SDS011;19080;51.750;5.888;2023-06-19T03:36:01;4.00;;;3.00;;
32319;SDS011;19080;51.750;5.888;2023-06-19T03:38:37;4.05;;;3.13;;
32319;SDS011;19080;51.750;5.888;2023-06-19T03:41:04;3.88;;;3.13;;
32319;SDS011;19080;51.750;5.888;2023-06-19T03:43:31;3.60;;;2.95;;
32319;SDS011;19080;51.750;5.888;2023-06-19T03:45:57;3.30;;;3.00;;
32319;SDS011;19080;51.750;5.888;2023-06-19T03:48:24;3.30;;;3.00;;
32319;SDS011;19080;51.750;5.888;2023-06-19T03:50:51;4.03;;;3.25;;
32319;SDS011;19080;51.750;5.888;2023-06-19T03:53:18;4.28;;;3.30;;
32319;SDS011;19080;51.750;5.888;2023-06-19T03:55:45;3.58;;;3.28;;
32319;SDS011;19080;51.750;5.888;2023-06-19T03:58:12;3.80;;;3.40;;
32319;SDS011;19080;51.750;5.888;2023-06-19T04:00:41;4.93;;;3.17;;
32319;SDS011;19080;51.750;5.888;2023-06-19T04:03:07;4.57;;;3.63;;
32319;SDS011;19080;51.750;5.888;2023-06-19T04:05:36;3.60;;;3.08;;
32319;SDS011;19080;51.750;5.888;2023-06-19T04:08:03;3.83;;;3.53;;
32319;SDS011;19080;51.750;5.888;2023-06-19T04:10:30;3.88;;;3.30;;
32319;SDS011;19080;51.750;5.888;2023-06-19T04:13:00;4.55;;;3.42;;
32319;SDS011;19080;51.750;5.888;2023-06-19T04:15:29;4.97;;;3.35;;
32319;SDS011;19080;51.750;5.888;2023-06-19T04:17:58;5.05;;;3.60;;
32319;SDS011;19080;51.750;5.888;2023-06-19T04:20:27;4.68;;;3.72;;
32319;SDS011;19080;51.750;5.888;2023-06-19T04:22:54;3.70;;;3.13;;
32319;SDS011;19080;51.750;5.888;2023-06-19T04:25:20;4.82;;;4.07;;
32319;SDS011;19080;51.750;5.888;2023-06-19T04:27:49;4.93;;;3.75;;
32319;SDS011;19080;51.750;5.888;2023-06-19T04:30:15;5.95;;;4.25;;
32319;SDS011;19080;51.750;5.888;2023-06-19T04:32:42;6.35;;;3.80;;
32319;SDS011;19080;51.750;5.888;2023-06-19T04:35:09;6.38;;;4.30;;
32319;SDS011;19080;51.750;5.888;2023-06-19T04:37:37;5.10;;;4.60;;
32319;SDS011;19080;51.750;5.888;2023-06-19T04:40:03;4.88;;;4.28;;
32319;SDS011;19080;51.750;5.888;2023-06-19T04:42:31;4.57;;;4.18;;
32319;SDS011;19080;51.750;5.888;2023-06-19T04:44:57;5.30;;;4.32;;
32319;SDS011;19080;51.750;5.888;2023-06-19T04:47:26;7.18;;;4.63;;
32319;SDS011;19080;51.750;5.888;2023-06-19T04:50:09;7.20;;;5.07;;
32319;SDS011;19080;51.750;5.888;2023-06-19T04:52:36;6.40;;;4.32;;
32319;SDS011;19080;51.750;5.888;2023-06-19T04:55:07;5.82;;;4.72;;
32319;SDS011;19080;51.750;5.888;2023-06-19T04:57:36;5.53;;;4.93;;
32319;SDS011;19080;51.750;5.888;2023-06-19T05:00:04;6.53;;;4.38;;
32319;SDS011;19080;51.750;5.888;2023-06-19T05:02:33;9.07;;;4.47;;
32319;SDS011;19080;51.750;5.888;2023-06-19T05:05:00;6.28;;;5.15;;
32319;SDS011;19080;51.750;5.888;2023-06-19T05:07:30;4.82;;;4.18;;
32319;SDS011;19080;51.750;5.888;2023-06-19T05:10:00;5.60;;;4.47;;
32319;SDS011;19080;51.750;5.888;2023-06-19T05:12:27;5.38;;;4.22;;
32319;SDS011;19080;51.750;5.888;2023-06-19T05:14:54;7.25;;;4.57;;
32319;SDS011;19080;51.750;5.888;2023-06-19T05:17:20;5.40;;;4.90;;
32319;SDS011;19080;51.750;5.888;2023-06-19T05:19:47;10.10;;;5.05;;
32319;SDS011;19080;51.750;5.888;2023-06-19T05:22:14;5.43;;;4.65;;
32319;SDS011;19080;51.750;5.888;2023-06-19T05:24:41;7.13;;;5.05;;
32319;SDS011;19080;51.750;5.888;2023-06-19T05:27:08;5.38;;;4.85;;
32319;SDS011;19080;51.750;5.888;2023-06-19T05:29:35;5.15;;;4.45;;
32319;SDS011;19080;51.750;5.888;2023-06-19T05:32:02;6.40;;;5.20;;
32319;SDS011;19080;51.750;5.888;2023-06-19T05:34:29;8.68;;;5.22;;
32319;SDS011;19080;51.750;5.888;2023-06-19T05:36:56;5.53;;;4.65;;
32319;SDS011;19080;51.750;5.888;2023-06-19T05:39:24;7.10;;;5.35;;
32319;SDS011;19080;51.750;5.888;2023-06-19T05:41:51;10.57;;;5.97;;
32319;SDS011;19080;51.750;5.888;2023-06-19T05:44:17;6.97;;;5.60;;
32319;SDS011;19080;51.750;5.888;2023-06-19T05:46:45;8.20;;;5.45;;
32319;SDS011;19080;51.750;5.888;2023-06-19T05:49:13;7.68;;;5.25;;
32319;SDS011;19080;51.750;5.888;2023-06-19T05:51:39;6.20;;;5.50;;
32319;SDS011;19080;51.750;5.888;2023-06-19T05:54:07;5.72;;;5.22;;
32319;SDS011;19080;51.750;5.888;2023-06-19T05:56:34;6.63;;;6.03;;
32319;SDS011;19080;51.750;5.888;2023-06-19T05:59:00;7.35;;;5.97;;
32319;SDS011;19080;51.750;5.888;2023-06-19T06:01:30;6.03;;;4.53;;
32319;SDS011;19080;51.750;5.888;2023-06-19T06:03:58;6.57;;;4.50;;
32319;SDS011;19080;51.750;5.888;2023-06-19T06:06:24;6.13;;;5.53;;
32319;SDS011;19080;51.750;5.888;2023-06-19T06:08:54;6.93;;;6.05;;
32319;SDS011;19080;51.750;5.888;2023-06-19T06:11:22;8.40;;;5.10;;
32319;SDS011;19080;51.750;5.888;2023-06-19T06:13:49;7.30;;;5.82;;
32319;SDS011;19080;51.750;5.888;2023-06-19T06:16:15;5.65;;;5.00;;
32319;SDS011;19080;51.750;5.888;2023-06-19T06:18:42;5.80;;;5.22;;
32319;SDS011;19080;51.750;5.888;2023-06-19T06:21:11;8.30;;;5.28;;
32319;SDS011;19080;51.750;5.888;2023-06-19T06:23:40;6.95;;;5.50;;
32319;SDS011;19080;51.750;5.888;2023-06-19T06:26:08;5.97;;;5.40;;
32319;SDS011;19080;51.750;5.888;2023-06-19T06:28:34;6.72;;;5.40;;
32319;SDS011;19080;51.750;5.888;2023-06-19T06:31:01;7.80;;;5.90;;
32319;SDS011;19080;51.750;5.888;2023-06-19T06:33:28;5.70;;;5.20;;
32319;SDS011;19080;51.750;5.888;2023-06-19T06:35:55;7.60;;;5.75;;
32319;SDS011;19080;51.750;5.888;2023-06-19T06:38:23;10.93;;;6.07;;
32319;SDS011;19080;51.750;5.888;2023-06-19T06:40:50;8.45;;;6.60;;
32319;SDS011;19080;51.750;5.888;2023-06-19T06:43:17;6.25;;;5.65;;
32319;SDS011;19080;51.750;5.888;2023-06-19T06:45:44;8.60;;;5.18;;
32319;SDS011;19080;51.750;5.888;2023-06-19T06:48:10;7.22;;;6.38;;
32319;SDS011;19080;51.750;5.888;2023-06-19T06:50:37;6.82;;;6.10;;
32319;SDS011;19080;51.750;5.888;2023-06-19T06:53:04;11.45;;;6.43;;
32319;SDS011;19080;51.750;5.888;2023-06-19T06:55:30;8.43;;;6.38;;
32319;SDS011;19080;51.750;5.888;2023-06-19T06:57:57;5.50;;;5.00;;
32319;SDS011;19080;51.750;5.888;2023-06-19T07:00:23;6.70;;;5.57;;
32319;SDS011;19080;51.750;5.888;2023-06-19T07:02:50;8.55;;;6.05;;
32319;SDS011;19080;51.750;5.888;2023-06-19T07:05:17;7.88;;;6.15;;
32319;SDS011;19080;51.750;5.888;2023-06-19T07:07:44;9.85;;;6.40;;
32319;SDS011;19080;51.750;5.888;2023-06-19T07:10:11;5.65;;;5.07;;
32319;SDS011;19080;51.750;5.888;2023-06-19T07:12:47;8.00;;;5.60;;
32319;SDS011;19080;51.750;5.888;2023-06-19T07:15:15;8.00;;;5.97;;
32319;SDS011;19080;51.750;5.888;2023-06-19T07:17:43;6.28;;;5.75;;
32319;SDS011;19080;51.750;5.888;2023-06-19T07:20:10;8.25;;;6.30;;
32319;SDS011;19080;51.750;5.888;2023-06-19T07:22:37;6.25;;;5.70;;
32319;SDS011;19080;51.750;5.888;2023-06-19T07:25:04;8.48;;;5.82;;
32319;SDS011;19080;51.750;5.888;2023-06-19T07:27:31;8.18;;;5.85;;
32319;SDS011;19080;51.750;5.888;2023-06-19T07:29:58;9.77;;;5.85;;
32319;SDS011;19080;51.750;5.888;2023-06-19T07:32:25;11.98;;;7.28;;
32319;SDS011;19080;51.750;5.888;2023-06-19T07:34:51;8.45;;;7.65;;
32319;SDS011;19080;51.750;5.888;2023-06-19T07:37:19;8.18;;;7.22;;
32319;SDS011;19080;51.750;5.888;2023-06-19T07:39:50;7.80;;;7.00;;
32319;SDS011;19080;51.750;5.888;2023-06-19T07:42:18;8.60;;;7.40;;
32319;SDS011;19080;51.750;5.888;2023-06-19T07:44:45;8.80;;;7.90;;
32319;SDS011;19080;51.750;5.888;2023-06-19T07:47:12;8.15;;;7.25;;
32319;SDS011;19080;51.750;5.888;2023-06-19T07:49:40;8.20;;;7.28;;
32319;SDS011;19080;51.750;5.888;2023-06-19T07:52:07;9.15;;;7.05;;
32319;SDS011;19080;51.750;5.888;2023-06-19T07:54:47;8.13;;;7.32;;
32319;SDS011;19080;51.750;5.888;2023-06-19T07:57:17;8.70;;;7.10;;
32319;SDS011;19080;51.750;5.888;2023-06-19T07:59:44;8.35;;;7.60;;
32319;SDS011;19080;51.750;5.888;2023-06-19T08:02:11;7.00;;;6.30;;
32319;SDS011;19080;51.750;5.888;2023-06-19T08:04:38;7.97;;;7.22;;
32319;SDS011;19080;51.750;5.888;2023-06-19T08:07:05;9.15;;;8.20;;
32319;SDS011;19080;51.750;5.888;2023-06-19T08:09:32;10.48;;;7.75;;
32319;SDS011;19080;51.750;5.888;2023-06-19T08:11:59;8.43;;;7.60;;
32319;SDS011;19080;51.750;5.888;2023-06-19T08:14:25;13.38;;;8.77;;
32319;SDS011;19080;51.750;5.888;2023-06-19T08:16:52;9.70;;;8.90;;
32319;SDS011;19080;51.750;5.888;2023-06-19T08:19:19;8.90;;;8.15;;
32319;SDS011;19080;51.750;5.888;2023-06-19T08:21:45;13.38;;;8.40;;
32319;SDS011;19080;51.750;5.888;2023-06-19T08:24:12;8.88;;;7.93;;
32319;SDS011;19080;51.750;5.888;2023-06-19T08:26:39;9.02;;;8.13;;
32319;SDS011;19080;51.750;5.888;2023-06-19T08:29:05;9.23;;;8.32;;
32319;SDS011;19080;51.750;5.888;2023-06-19T08:31:32;10.07;;;9.00;;
32319;SDS011;19080;51.750;5.888;2023-06-19T08:34:00;11.40;;;7.60;;
32319;SDS011;19080;51.750;5.888;2023-06-19T08:36:30;10.52;;;8.00;;
32319;SDS011;19080;51.750;5.888;2023-06-19T08:38:57;9.15;;;8.38;;
32319;SDS011;19080;51.750;5.888;2023-06-19T08:41:24;7.53;;;6.82;;
32319;SDS011;19080;51.750;5.888;2023-06-19T08:43:51;12.98;;;7.97;;
32319;SDS011;19080;51.750;5.888;2023-06-19T08:46:17;9.57;;;8.65;;
32319;SDS011;19080;51.750;5.888;2023-06-19T08:48:48;10.73;;;8.20;;
32319;SDS011;19080;51.750;5.888;2023-06-19T08:51:15;8.98;;;8.18;;
32319;SDS011;19080;51.750;5.888;2023-06-19T08:53:49;7.85;;;7.07;;
32319;SDS011;19080;51.750;5.888;2023-06-19T08:56:20;11.65;;;8.77;;
32319;SDS011;19080;51.750;5.888;2023-06-19T08:58:47;8.73;;;7.45;;
32319;SDS011;19080;51.750;5.888;2023-06-19T09:01:18;10.70;;;8.98;;
32319;SDS011;19080;51.750;5.888;2023-06-19T09:03:49;11.38;;;8.88;;
32319;SDS011;19080;51.750;5.888;2023-06-19T09:06:19;8.95;;;8.05;;
32319;SDS011;19080;51.750;5.888;2023-06-19T09:08:56;10.70;;;9.65;;
32319;SDS011;19080;51.750;5.888;2023-06-19T09:11:24;10.48;;;9.50;;
32319;SDS011;19080;51.750;5.888;2023-06-19T09:13:57;8.98;;;8.10;;
32319;SDS011;19080;51.750;5.888;2023-06-19T09:16:26;12.20;;;8.77;;
32319;SDS011;19080;51.750;5.888;2023-06-19T09:19:03;10.57;;;8.95;;
32319;SDS011;19080;51.750;5.888;2023-06-19T09:21:30;9.57;;;8.15;;
32319;SDS011;19080;51.750;5.888;2023-06-19T09:24:14;8.45;;;7.65;;
32319;SDS011;19080;51.750;5.888;2023-06-19T09:26:41;9.57;;;8.60;;
32319;SDS011;19080;51.750;5.888;2023-06-19T09:29:12;10.00;;;9.20;;
32319;SDS011;19080;51.750;5.888;2023-06-19T09:31:42;7.55;;;6.85;;
32319;SDS011;19080;51.750;5.888;2023-06-19T09:34:09;9.07;;;7.97;;
32319;SDS011;19080;51.750;5.888;2023-06-19T09:36:36;8.73;;;7.82;;
32319;SDS011;19080;51.750;5.888;2023-06-19T09:39:03;12.93;;;7.30;;
32319;SDS011;19080;51.750;5.888;2023-06-19T09:41:30;10.02;;;8.48;;
32319;SDS011;19080;51.750;5.888;2023-06-19T09:43:58;9.43;;;7.18;;
32319;SDS011;19080;51.750;5.888;2023-06-19T09:46:26;7.80;;;6.93;;
32319;SDS011;19080;51.750;5.888;2023-06-19T09:48:58;10.27;;;8.10;;
32319;SDS011;19080;51.750;5.888;2023-06-19T09:51:30;9.40;;;8.43;;
32319;SDS011;19080;51.750;5.888;2023-06-19T09:53:59;10.98;;;7.85;;
32319;SDS011;19080;51.750;5.888;2023-06-19T09:56:28;8.55;;;7.20;;
32319;SDS011;19080;51.750;5.888;2023-06-19T09:58:56;11.25;;;8.05;;
32319;SDS011;19080;51.750;5.888;2023-06-19T10:04:01;7.43;;;6.72;;
32319;SDS011;19080;51.750;5.888;2023-06-19T10:06:32;8.85;;;7.90;;
32319;SDS011;19080;51.750;5.888;2023-06-19T10:09:06;7.82;;;6.80;;
32319;SDS011;19080;51.750;5.888;2023-06-19T10:11:44;9.45;;;7.03;;
32319;SDS011;19080;51.750;5.888;2023-06-19T10:14:14;8.75;;;6.63;;
32319;SDS011;19080;51.750;5.888;2023-06-19T10:16:44;7.60;;;6.80;;
32319;SDS011;19080;51.750;5.888;2023-06-19T10:19:15;9.05;;;7.30;;
32319;SDS011;19080;51.750;5.888;2023-06-19T10:21:44;9.60;;;7.15;;
32319;SDS011;19080;51.750;5.888;2023-06-19T10:24:15;6.97;;;6.22;;
32319;SDS011;19080;51.750;5.888;2023-06-19T10:26:59;6.40;;;5.87;;
32319;SDS011;19080;51.750;5.888;2023-06-19T10:29:39;9.25;;;7.13;;
32319;SDS011;19080;51.750;5.888;2023-06-19T10:32:19;8.73;;;7.87;;
32319;SDS011;19080;51.750;5.888;2023-06-19T10:34:46;10.15;;;6.35;;
32319;SDS011;19080;51.750;5.888;2023-06-19T10:37:15;6.38;;;5.53;;
32319;SDS011;19080;51.750;5.888;2023-06-19T10:39:42;6.75;;;5.93;;
32319;SDS011;19080;51.750;5.888;2023-06-19T10:42:10;7.70;;;5.90;;
32319;SDS011;19080;51.750;5.888;2023-06-19T10:44:36;6.10;;;5.20;;
32319;SDS011;19080;51.750;5.888;2023-06-19T10:47:04;8.60;;;6.03;;
32319;SDS011;19080;51.750;5.888;2023-06-19T10:49:33;8.25;;;7.28;;
32319;SDS011;19080;51.750;5.888;2023-06-19T10:52:01;7.18;;;6.15;;
32319;SDS011;19080;51.750;5.888;2023-06-19T10:54:28;7.65;;;6.25;;
32319;SDS011;19080;51.750;5.888;2023-06-19T10:56:55;11.77;;;6.85;;
32319;SDS011;19080;51.750;5.888;2023-06-19T10:59:23;6.38;;;5.63;;
32319;SDS011;19080;51.750;5.888;2023-06-19T11:01:51;6.75;;;6.07;;
32319;SDS011;19080;51.750;5.888;2023-06-19T11:04:18;7.28;;;6.10;;
32319;SDS011;19080;51.750;5.888;2023-06-19T11:06:45;8.30;;;6.93;;
32319;SDS011;19080;51.750;5.888;2023-06-19T11:09:13;9.07;;;5.40;;
32319;SDS011;19080;51.750;5.888;2023-06-19T11:11:44;9.40;;;6.32;;
32319;SDS011;19080;51.750;5.888;2023-06-19T11:14:13;8.50;;;6.82;;
32319;SDS011;19080;51.750;5.888;2023-06-19T11:16:42;10.05;;;7.55;;
32319;SDS011;19080;51.750;5.888;2023-06-19T11:19:20;6.78;;;5.78;;
32319;SDS011;19080;51.750;5.888;2023-06-19T11:21:49;10.43;;;7.25;;
32319;SDS011;19080;51.750;5.888;2023-06-19T11:24:17;8.00;;;6.43;;
32319;SDS011;19080;51.750;5.888;2023-06-19T11:26:45;6.97;;;6.25;;
32319;SDS011;19080;51.750;5.888;2023-06-19T11:29:21;8.85;;;7.20;;
32319;SDS011;19080;51.750;5.888;2023-06-19T11:34:16;6.70;;;6.10;;
32319;SDS011;19080;51.750;5.888;2023-06-19T11:36:48;13.07;;;6.40;;
32319;SDS011;19080;51.750;5.888;2023-06-19T11:39:15;7.15;;;6.07;;
32319;SDS011;19080;51.750;5.888;2023-06-19T11:41:45;8.40;;;6.60;;
32319;SDS011;19080;51.750;5.888;2023-06-19T11:44:12;9.57;;;6.60;;
32319;SDS011;19080;51.750;5.888;2023-06-19T11:46:39;9.38;;;6.18;;
32319;SDS011;19080;51.750;5.888;2023-06-19T11:49:18;7.47;;;6.60;;
32319;SDS011;19080;51.750;5.888;2023-06-19T11:51:46;9.27;;;8.13;;
32319;SDS011;19080;51.750;5.888;2023-06-19T11:54:14;9.02;;;6.13;;
32319;SDS011;19080;51.750;5.888;2023-06-19T11:56:47;11.88;;;6.97;;
32319;SDS011;19080;51.750;5.888;2023-06-19T11:59:16;7.68;;;6.32;;
32319;SDS011;19080;51.750;5.888;2023-06-19T12:01:43;6.65;;;5.35;;
32319;SDS011;19080;51.750;5.888;2023-06-19T12:04:09;10.35;;;5.88;;
32319;SDS011;19080;51.750;5.888;2023-06-19T12:06:36;6.78;;;5.72;;
32319;SDS011;19080;51.750;5.888;2023-06-19T12:09:03;9.05;;;6.68;;
32319;SDS011;19080;51.750;5.888;2023-06-19T12:11:33;8.52;;;6.65;;
32319;SDS011;19080;51.750;5.888;2023-06-19T12:14:00;6.93;;;5.57;;
32319;SDS011;19080;51.750;5.888;2023-06-19T12:16:26;6.88;;;5.95;;
32319;SDS011;19080;51.750;5.888;2023-06-19T12:18:55;5.93;;;5.35;;
32319;SDS011;19080;51.750;5.888;2023-06-19T12:21:21;6.18;;;5.57;;
32319;SDS011;19080;51.750;5.888;2023-06-19T12:24:03;12.15;;;6.70;;
32319;SDS011;19080;51.750;5.888;2023-06-19T12:26:30;5.95;;;5.32;;
32319;SDS011;19080;51.750;5.888;2023-06-19T12:29:04;8.02;;;6.25;;
32319;SDS011;19080;51.750;5.888;2023-06-19T12:31:33;6.28;;;5.68;;
32319;SDS011;19080;51.750;5.888;2023-06-19T12:34:02;6.68;;;5.05;;
32319;SDS011;19080;51.750;5.888;2023-06-19T12:36:49;6.97;;;6.13;;
32319;SDS011;19080;51.750;5.888;2023-06-19T12:39:16;13.10;;;6.30;;
32319;SDS011;19080;51.750;5.888;2023-06-19T12:41:43;7.47;;;6.50;;
32319;SDS011;19080;51.750;5.888;2023-06-19T12:44:09;6.00;;;5.35;;
32319;SDS011;19080;51.750;5.888;2023-06-19T12:46:36;6.80;;;5.85;;
32319;SDS011;19080;51.750;5.888;2023-06-19T12:49:04;6.30;;;5.20;;
32319;SDS011;19080;51.750;5.888;2023-06-19T12:51:30;7.15;;;5.45;;
32319;SDS011;19080;51.750;5.888;2023-06-19T12:53:57;8.93;;;5.78;;
32319;SDS011;19080;51.750;5.888;2023-06-19T12:56:23;7.35;;;5.13;;
32319;SDS011;19080;51.750;5.888;2023-06-19T12:58:50;7.88;;;5.47;;
32319;SDS011;19080;51.750;5.888;2023-06-19T13:01:17;6.13;;;5.53;;
32319;SDS011;19080;51.750;5.888;2023-06-19T13:03:44;9.38;;;5.85;;
32319;SDS011;19080;51.750;5.888;2023-06-19T13:06:10;5.57;;;4.97;;
32319;SDS011;19080;51.750;5.888;2023-06-19T13:08:37;6.53;;;5.53;;
32319;SDS011;19080;51.750;5.888;2023-06-19T13:11:04;5.13;;;4.43;;
32319;SDS011;19080;51.750;5.888;2023-06-19T13:13:30;4.70;;;4.20;;
32319;SDS011;19080;51.750;5.888;2023-06-19T13:15:57;5.10;;;4.60;;
32319;SDS011;19080;51.750;5.888;2023-06-19T13:18:24;5.75;;;4.50;;
32319;SDS011;19080;51.750;5.888;2023-06-19T13:20:50;6.13;;;4.68;;
32319;SDS011;19080;51.750;5.888;2023-06-19T13:23:17;6.18;;;5.32;;
32319;SDS011;19080;51.750;5.888;2023-06-19T13:25:44;6.72;;;5.55;;
32319;SDS011;19080;51.750;5.888;2023-06-19T13:28:10;7.30;;;5.15;;
32319;SDS011;19080;51.750;5.888;2023-06-19T13:30:37;5.78;;;5.28;;
32319;SDS011;19080;51.750;5.888;2023-06-19T13:33:04;7.20;;;5.28;;
32319;SDS011;19080;51.750;5.888;2023-06-19T13:35:31;6.18;;;4.70;;
32319;SDS011;19080;51.750;5.888;2023-06-19T13:37:57;6.47;;;4.35;;
32319;SDS011;19080;51.750;5.888;2023-06-19T13:40:25;8.75;;;4.82;;
32319;SDS011;19080;51.750;5.888;2023-06-19T13:42:52;6.90;;;5.20;;
32319;SDS011;19080;51.750;5.888;2023-06-19T13:45:19;12.15;;;4.93;;
32319;SDS011;19080;51.750;5.888;2023-06-19T13:47:45;5.80;;;5.03;;
32319;SDS011;19080;51.750;5.888;2023-06-19T13:50:12;6.22;;;5.07;;
32319;SDS011;19080;51.750;5.888;2023-06-19T13:52:47;5.10;;;4.30;;
32319;SDS011;19080;51.750;5.888;2023-06-19T13:55:14;6.45;;;4.72;;
32319;SDS011;19080;51.750;5.888;2023-06-19T13:57:42;6.68;;;4.97;;
32319;SDS011;19080;51.750;5.888;2023-06-19T14:00:10;5.85;;;4.60;;
32319;SDS011;19080;51.750;5.888;2023-06-19T14:02:41;5.28;;;4.28;;
32319;SDS011;19080;51.750;5.888;2023-06-19T14:05:08;4.60;;;4.10;;
32319;SDS011;19080;51.750;5.888;2023-06-19T14:07:36;4.45;;;4.03;;
32319;SDS011;19080;51.750;5.888;2023-06-19T14:10:04;5.78;;;4.60;;
32319;SDS011;19080;51.750;5.888;2023-06-19T14:12:31;5.97;;;4.53;;
32319;SDS011;19080;51.750;5.888;2023-06-19T14:14:57;5.53;;;4.45;;
32319;SDS011;19080;51.750;5.888;2023-06-19T14:17:24;5.53;;;4.20;;
32319;SDS011;19080;51.750;5.888;2023-06-19T14:19:51;5.80;;;3.95;;
32319;SDS011;19080;51.750;5.888;2023-06-19T14:22:18;5.05;;;4.15;;
32319;SDS011;19080;51.750;5.888;2023-06-19T14:24:44;6.05;;;4.25;;
32319;SDS011;19080;51.750;5.888;2023-06-19T14:27:11;4.40;;;4.00;;
32319;SDS011;19080;51.750;5.888;2023-06-19T14:29:38;5.60;;;4.00;;
32319;SDS011;19080;51.750;5.888;2023-06-19T14:32:05;5.30;;;3.50;;
32319;SDS011;19080;51.750;5.888;2023-06-19T14:34:32;5.35;;;4.22;;
32319;SDS011;19080;51.750;5.888;2023-06-19T14:36:58;6.28;;;3.95;;
32319;SDS011;19080;51.750;5.888;2023-06-19T14:39:25;4.35;;;3.97;;
32319;SDS011;19080;51.750;5.888;2023-06-19T14:41:52;5.60;;;4.00;;
32319;SDS011;19080;51.750;5.888;2023-06-19T14:44:18;12.30;;;4.88;;
32319;SDS011;19080;51.750;5.888;2023-06-19T14:46:45;7.10;;;3.92;;
32319;SDS011;19080;51.750;5.888;2023-06-19T14:49:12;4.43;;;3.63;;
32319;SDS011;19080;51.750;5.888;2023-06-19T14:51:39;6.55;;;4.20;;
32319;SDS011;19080;51.750;5.888;2023-06-19T14:54:07;5.45;;;4.28;;
32319;SDS011;19080;51.750;5.888;2023-06-19T14:56:34;5.40;;;4.47;;
32319;SDS011;19080;51.750;5.888;2023-06-19T14:59:01;4.95;;;4.35;;
32319;SDS011;19080;51.750;5.888;2023-06-19T15:01:28;4.97;;;4.47;;
32319;SDS011;19080;51.750;5.888;2023-06-19T15:03:55;7.18;;;4.50;;